Time;durP1;ratioP1;P1;durP2;ratioP2;P2;SDS_P1;SDS_P2;PMS_P1;PMS_P2;Temp;Humidity;BMP_temperature;BMP_pressure;BME280_temperature;BME280_humidity;BME280_pressure;Samples;Min_cycle;Max_cycle;Signal;HPM_P1;HPM_P2
2022/09/01 00:00:37;;;;;;;1.33;1.10;;;;;;;;;;4937134;28;20246;-59
2022/09/01 00:03:05;;;;;;;1.20;0.98;;;;;;;;;;4938836;29;20282;-58
2022/09/01 00:05:32;;;;;;;3.00;1.10;;;;;;;;;;4939432;29;20243;-58
2022/09/01 00:07:59;;;;;;;1.95;1.00;;;;;;;;;;4940974;28;20246;-59
2022/09/01 00:10:25;;;;;;;1.13;1.00;;;;;;;;;;4936540;28;20261;-58
2022/09/01 00:12:52;;;;;;;2.13;0.93;;;;;;;;;;4941621;29;20236;-58
2022/09/01 00:15:18;;;;;;;1.52;1.30;;;;;;;;;;4938591;29;20235;-58
2022/09/01 00:17:46;;;;;;;2.60;0.98;;;;;;;;;;4938703;28;20318;-58
2022/09/01 00:20:12;;;;;;;1.98;0.90;;;;;;;;;;4937153;28;20326;-58
2022/09/01 00:22:39;;;;;;;1.13;0.93;;;;;;;;;;4942799;28;20242;-57
2022/09/01 00:25:06;;;;;;;1.25;1.00;;;;;;;;;;4941147;28;20242;-57
2022/09/01 00:27:33;;;;;;;1.52;1.02;;;;;;;;;;4942821;28;21080;-57
2022/09/01 00:29:59;;;;;;;1.17;1.00;;;;;;;;;;4943715;28;20607;-57
2022/09/01 00:32:26;;;;;;;1.25;0.93;;;;;;;;;;4940857;28;20242;-57
2022/09/01 00:34:53;;;;;;;1.27;1.17;;;;;;;;;;4935405;28;20244;-58
2022/09/01 00:37:20;;;;;;;1.10;1.00;;;;;;;;;;4930037;28;20241;-57
2022/09/01 00:39:46;;;;;;;1.33;1.08;;;;;;;;;;4931688;28;20231;-57
2022/09/01 00:42:12;;;;;;;3.33;1.05;;;;;;;;;;4939327;28;20227;-58
2022/09/01 00:44:39;;;;;;;3.17;0.85;;;;;;;;;;4938559;28;20259;-58
2022/09/01 00:47:06;;;;;;;1.10;1.00;;;;;;;;;;4939047;28;20235;-58
2022/09/01 00:49:34;;;;;;;1.15;0.90;;;;;;;;;;4936682;28;20235;-57
2022/09/01 00:52:04;;;;;;;0.80;0.80;;;;;;;;;;4941132;28;20326;-60
2022/09/01 00:54:32;;;;;;;0.95;0.90;;;;;;;;;;4933904;29;20239;-60
2022/09/01 00:56:58;;;;;;;1.13;0.80;;;;;;;;;;4935903;29;20653;-59
2022/09/01 00:59:26;;;;;;;1.75;0.70;;;;;;;;;;4943207;28;20235;-58
2022/09/01 01:01:52;;;;;;;1.10;1.10;;;;;;;;;;4938481;29;20235;-58
2022/09/01 01:04:18;;;;;;;1.25;1.15;;;;;;;;;;4931790;29;20239;-57
2022/09/01 01:06:48;;;;;;;2.40;0.80;;;;;;;;;;4935793;28;20235;-58
2022/09/01 01:09:17;;;;;;;1.00;0.63;;;;;;;;;;4937375;28;20235;-58
2022/09/01 01:11:45;;;;;;;1.92;1.13;;;;;;;;;;4941967;28;20235;-59
2022/09/01 01:14:11;;;;;;;0.73;0.73;;;;;;;;;;4937568;28;20235;-58
2022/09/01 01:16:42;;;;;;;2.28;1.00;;;;;;;;;;4940220;28;20250;-58
2022/09/01 01:23:01;;;;;;;0.80;0.80;;;;;;;;;;4937215;28;20267;-58
2022/09/01 01:24:51;;;;;;;0.98;0.82;;;;;;;;;;4889685;29;20235;-58
2022/09/01 01:27:20;;;;;;;3.00;1.00;;;;;;;;;;4943156;28;20262;-58
2022/09/01 01:29:47;;;;;;;1.48;0.90;;;;;;;;;;4944618;28;20649;-57
2022/09/01 01:32:13;;;;;;;2.40;0.95;;;;;;;;;;4938591;28;20235;-57
2022/09/01 01:34:44;;;;;;;1.13;1.00;;;;;;;;;;4935332;28;20242;-58
2022/09/01 01:37:12;;;;;;;1.20;1.20;;;;;;;;;;4942347;28;20592;-58
2022/09/01 01:39:41;;;;;;;1.35;0.93;;;;;;;;;;4942239;28;20757;-59
2022/09/01 01:42:09;;;;;;;1.15;0.70;;;;;;;;;;4943426;28;20239;-58
2022/09/01 01:44:37;;;;;;;1.80;0.90;;;;;;;;;;4939859;28;20322;-58
2022/09/01 01:47:07;;;;;;;1.05;0.95;;;;;;;;;;4943228;28;20239;-57
2022/09/01 01:49:34;;;;;;;2.05;0.98;;;;;;;;;;4936909;28;20665;-59
2022/09/01 01:52:00;;;;;;;0.85;0.70;;;;;;;;;;4943995;28;20235;-58
2022/09/01 01:54:28;;;;;;;0.85;0.65;;;;;;;;;;4944883;28;20841;-59
2022/09/01 01:56:56;;;;;;;1.05;0.88;;;;;;;;;;4948954;28;20266;-58
2022/09/01 01:59:25;;;;;;;0.95;0.70;;;;;;;;;;4939416;28;20767;-57
2022/09/01 02:01:51;;;;;;;1.35;0.82;;;;;;;;;;4935113;28;20240;-58
2022/09/01 02:04:18;;;;;;;2.03;1.20;;;;;;;;;;4942128;28;20306;-58
2022/09/01 02:06:46;;;;;;;1.98;1.02;;;;;;;;;;4939412;28;20290;-58
2022/09/01 02:09:13;;;;;;;3.22;1.08;;;;;;;;;;4937682;28;20310;-56
2022/09/01 02:11:40;;;;;;;2.20;0.80;;;;;;;;;;4940945;28;20603;-58
2022/09/01 02:14:08;;;;;;;3.83;1.20;;;;;;;;;;4945655;28;20239;-58
2022/09/01 02:16:36;;;;;;;2.45;1.35;;;;;;;;;;4946837;28;20270;-58
2022/09/01 02:19:05;;;;;;;1.10;1.00;;;;;;;;;;4945744;28;20243;-57
2022/09/01 02:21:32;;;;;;;1.00;0.88;;;;;;;;;;4944882;28;20289;-58
2022/09/01 02:23:59;;;;;;;1.88;1.10;;;;;;;;;;4944824;28;20227;-57
2022/09/01 02:26:30;;;;;;;1.00;0.88;;;;;;;;;;4942089;28;20290;-57
2022/09/01 02:28:57;;;;;;;0.93;0.82;;;;;;;;;;4939200;28;20329;-57
2022/09/01 02:31:24;;;;;;;1.48;1.15;;;;;;;;;;4942839;28;20246;-56
2022/09/01 02:33:53;;;;;;;0.90;0.90;;;;;;;;;;4943887;28;20232;-58
2022/09/01 02:36:20;;;;;;;0.95;0.70;;;;;;;;;;4943552;28;20318;-56
2022/09/01 02:38:47;;;;;;;2.25;1.10;;;;;;;;;;4943351;28;20227;-56
2022/09/01 02:41:15;;;;;;;1.10;1.00;;;;;;;;;;4944848;28;20239;-56
2022/09/01 02:43:42;;;;;;;1.23;0.88;;;;;;;;;;4944290;28;20313;-57
2022/09/01 02:46:08;;;;;;;0.90;0.90;;;;;;;;;;4944110;28;20235;-58
2022/09/01 02:48:36;;;;;;;1.20;1.10;;;;;;;;;;4944989;28;20235;-57
2022/09/01 02:51:04;;;;;;;3.10;1.10;;;;;;;;;;4944352;28;20774;-58
2022/09/01 02:53:33;;;;;;;1.52;1.10;;;;;;;;;;4943100;28;20228;-58
2022/09/01 02:56:01;;;;;;;0.98;0.98;;;;;;;;;;4944624;28;20243;-56
2022/09/01 02:58:27;;;;;;;1.15;1.02;;;;;;;;;;4937326;28;20333;-57
2022/09/01 03:00:57;;;;;;;1.20;1.05;;;;;;;;;;4931154;28;20231;-57
2022/09/01 03:03:23;;;;;;;1.60;1.10;;;;;;;;;;4943270;28;20231;-56
2022/09/01 03:05:55;;;;;;;1.45;0.93;;;;;;;;;;4936972;28;20242;-57
2022/09/01 03:08:23;;;;;;;0.95;0.95;;;;;;;;;;4947857;28;20230;-60
2022/09/01 03:10:50;;;;;;;0.98;0.98;;;;;;;;;;4944239;28;20488;-57
2022/09/01 03:13:18;;;;;;;1.10;0.98;;;;;;;;;;4942132;28;20725;-57
2022/09/01 03:15:44;;;;;;;2.05;1.15;;;;;;;;;;4946055;28;20753;-58
2022/09/01 03:18:12;;;;;;;2.35;1.38;;;;;;;;;;4943230;28;20245;-57
2022/09/01 03:20:42;;;;;;;3.13;1.67;;;;;;;;;;4943124;28;20238;-56
2022/09/01 03:23:09;;;;;;;2.38;1.65;;;;;;;;;;4940509;28;20239;-56
2022/09/01 03:25:37;;;;;;;2.53;1.95;;;;;;;;;;4940602;28;20235;-57
2022/09/01 03:28:04;;;;;;;2.53;1.90;;;;;;;;;;4945224;28;20235;-56
2022/09/01 03:30:31;;;;;;;1.83;1.73;;;;;;;;;;4947596;28;20239;-57
2022/09/01 03:32:58;;;;;;;3.10;1.90;;;;;;;;;;4939915;28;20235;-57
2022/09/01 03:35:25;;;;;;;2.85;1.65;;;;;;;;;;4948243;28;20239;-57
2022/09/01 03:37:52;;;;;;;3.10;1.75;;;;;;;;;;4947043;28;20227;-56
2022/09/01 03:40:18;;;;;;;1.83;1.48;;;;;;;;;;4936342;28;20325;-56
2022/09/01 03:42:46;;;;;;;3.42;1.38;;;;;;;;;;4945404;28;20243;-57
2022/09/01 03:45:15;;;;;;;2.47;1.40;;;;;;;;;;4942932;28;20240;-57
2022/09/01 03:47:42;;;;;;;1.42;1.33;;;;;;;;;;4947081;28;20258;-57
2022/09/01 03:50:12;;;;;;;4.22;1.50;;;;;;;;;;4946738;28;20798;-56
2022/09/01 03:52:39;;;;;;;3.83;1.65;;;;;;;;;;4934034;28;20231;-57
2022/09/01 03:55:06;;;;;;;2.67;1.60;;;;;;;;;;4946309;29;20243;-57
2022/09/01 03:57:33;;;;;;;1.55;1.20;;;;;;;;;;4934441;28;20323;-56
2022/09/01 04:00:01;;;;;;;1.88;1.70;;;;;;;;;;4945137;28;20243;-57
2022/09/01 04:02:29;;;;;;;2.60;1.27;;;;;;;;;;4943940;28;20723;-57
2022/09/01 04:04:57;;;;;;;1.58;1.27;;;;;;;;;;4939031;28;20239;-57
2022/09/01 04:07:24;;;;;;;1.58;1.48;;;;;;;;;;4946871;28;20253;-57
2022/09/01 04:09:51;;;;;;;2.33;1.42;;;;;;;;;;4948300;28;20231;-57
2022/09/01 04:12:17;;;;;;;1.13;1.13;;;;;;;;;;4946413;28;20239;-57
2022/09/01 04:14:46;;;;;;;1.67;1.30;;;;;;;;;;4946521;28;20233;-57
2022/09/01 04:19:58;;;;;;;1.48;1.30;;;;;;;;;;4939142;28;20310;-58
2022/09/01 04:22:30;;;;;;;1.83;1.73;;;;;;;;;;4938649;28;20269;-58
2022/09/01 04:24:58;;;;;;;4.15;1.30;;;;;;;;;;4942075;28;20255;-57
2022/09/01 04:27:25;;;;;;;3.47;2.13;;;;;;;;;;4947522;28;20241;-58
2022/09/01 04:29:52;;;;;;;2.42;1.45;;;;;;;;;;4948629;28;20232;-57
2022/09/01 04:32:20;;;;;;;2.85;2.03;;;;;;;;;;4946949;28;20231;-58
2022/09/01 04:34:47;;;;;;;2.67;1.65;;;;;;;;;;4945119;28;20238;-57
2022/09/01 04:37:16;;;;;;;3.72;2.03;;;;;;;;;;4944891;28;20271;-58
2022/09/01 04:39:48;;;;;;;2.00;1.75;;;;;;;;;;4937565;28;20384;-57
2022/09/01 04:42:15;;;;;;;3.08;2.15;;;;;;;;;;4942417;28;20318;-57
2022/09/01 04:44:41;;;;;;;2.83;1.70;;;;;;;;;;4945952;28;20741;-56
2022/09/01 04:47:11;;;;;;;2.17;1.73;;;;;;;;;;4940372;28;20228;-57
2022/09/01 04:49:38;;;;;;;2.03;1.83;;;;;;;;;;4938720;28;20236;-57
2022/09/01 04:52:05;;;;;;;2.03;1.75;;;;;;;;;;4941154;28;20250;-57
2022/09/01 04:54:35;;;;;;;4.22;1.67;;;;;;;;;;4944521;28;20924;-58
2022/09/01 04:57:02;;;;;;;3.22;2.03;;;;;;;;;;4943890;28;20243;-57
2022/09/01 04:59:31;;;;;;;4.18;2.70;;;;;;;;;;4944698;28;20238;-57
2022/09/01 05:01:59;;;;;;;3.67;2.30;;;;;;;;;;4945449;28;20595;-57
2022/09/01 05:04:27;;;;;;;3.72;1.63;;;;;;;;;;4940710;28;20276;-57
2022/09/01 05:06:58;;;;;;;1.63;1.52;;;;;;;;;;4944046;28;20642;-57
2022/09/01 05:09:25;;;;;;;2.08;1.90;;;;;;;;;;4942297;28;20243;-57
2022/09/01 05:11:51;;;;;;;2.25;1.80;;;;;;;;;;4942631;28;20247;-58
2022/09/01 05:14:19;;;;;;;2.30;2.00;;;;;;;;;;4947870;28;20314;-57
2022/09/01 05:16:45;;;;;;;1.90;1.50;;;;;;;;;;4943888;28;20242;-56
2022/09/01 05:19:13;;;;;;;2.10;1.90;;;;;;;;;;4945004;28;20231;-57
2022/09/01 05:21:40;;;;;;;3.10;1.95;;;;;;;;;;4946761;28;20339;-58
2022/09/01 05:24:09;;;;;;;3.65;2.17;;;;;;;;;;4943113;28;20239;-57
2022/09/01 05:26:39;;;;;;;5.47;2.42;;;;;;;;;;4942563;28;20247;-58
2022/09/01 05:29:09;;;;;;;4.43;2.20;;;;;;;;;;4947008;28;20239;-57
2022/09/01 05:31:36;;;;;;;6.40;2.42;;;;;;;;;;4945706;28;21158;-60
2022/09/01 05:34:03;;;;;;;4.15;2.20;;;;;;;;;;4948762;28;20845;-59
2022/09/01 05:36:32;;;;;;;4.38;2.03;;;;;;;;;;4945945;28;20770;-58
2022/09/01 05:38:59;;;;;;;2.88;1.65;;;;;;;;;;4947257;28;20239;-57
2022/09/01 05:41:27;;;;;;;2.72;1.88;;;;;;;;;;4942384;28;20290;-57
2022/09/01 05:43:54;;;;;;;1.85;1.50;;;;;;;;;;4941590;28;20477;-57
2022/09/01 05:46:21;;;;;;;1.48;1.35;;;;;;;;;;4938467;28;20620;-59
2022/09/01 05:48:48;;;;;;;2.63;1.83;;;;;;;;;;4945667;28;20227;-58
2022/09/01 05:51:16;;;;;;;1.70;1.60;;;;;;;;;;4946655;28;20231;-58
2022/09/01 05:53:43;;;;;;;3.08;1.55;;;;;;;;;;4943185;28;20260;-58
2022/09/01 05:56:13;;;;;;;1.92;1.63;;;;;;;;;;4939346;28;20227;-57
2022/09/01 05:58:45;;;;;;;3.47;2.15;;;;;;;;;;4941526;28;20232;-57
2022/09/01 06:01:15;;;;;;;3.30;1.50;;;;;;;;;;4936465;28;20235;-57
2022/09/01 06:03:43;;;;;;;1.98;1.52;;;;;;;;;;4944108;28;20235;-57
2022/09/01 06:06:11;;;;;;;3.05;1.55;;;;;;;;;;4942314;28;20631;-57
2022/09/01 06:08:37;;;;;;;1.92;1.50;;;;;;;;;;4943649;28;20286;-57
2022/09/01 06:11:11;;;;;;;3.17;1.80;;;;;;;;;;4942589;28;20231;-57
2022/09/01 06:13:38;;;;;;;6.43;1.83;;;;;;;;;;4937867;28;20242;-56
2022/09/01 06:16:07;;;;;;;2.95;2.33;;;;;;;;;;4944507;28;20318;-57
2022/09/01 06:18:34;;;;;;;2.47;1.80;;;;;;;;;;4940151;29;20238;-56
2022/09/01 06:21:02;;;;;;;3.38;1.90;;;;;;;;;;4945094;28;20275;-57
2022/09/01 06:23:30;;;;;;;7.65;2.72;;;;;;;;;;4943017;29;20933;-58
2022/09/01 06:25:58;;;;;;;10.85;3.50;;;;;;;;;;4939883;28;20235;-57
2022/09/01 06:28:25;;;;;;;2.78;1.55;;;;;;;;;;4939066;28;21971;-57
2022/09/01 06:30:52;;;;;;;7.03;1.55;;;;;;;;;;4941112;28;20235;-57
2022/09/01 06:33:21;;;;;;;3.33;2.13;;;;;;;;;;4946933;29;20862;-58
2022/09/01 06:35:48;;;;;;;4.22;1.88;;;;;;;;;;4937073;28;20243;-57
2022/09/01 06:38:18;;;;;;;3.17;1.60;;;;;;;;;;4944274;28;20235;-57
2022/09/01 06:40:44;;;;;;;2.95;1.60;;;;;;;;;;4934244;28;20310;-57
2022/09/01 06:43:16;;;;;;;2.42;1.50;;;;;;;;;;4933263;28;20246;-57
2022/09/01 06:45:43;;;;;;;3.00;1.50;;;;;;;;;;4940211;28;20252;-58
2022/09/01 06:48:15;;;;;;;2.50;1.65;;;;;;;;;;4947349;28;20245;-62
2022/09/01 06:50:42;;;;;;;3.03;1.45;;;;;;;;;;4949376;28;20927;-57
2022/09/01 06:53:10;;;;;;;3.88;2.00;;;;;;;;;;4947112;29;20722;-59
2022/09/01 06:55:37;;;;;;;5.75;1.60;;;;;;;;;;4939597;28;20239;-56
2022/09/01 06:58:05;;;;;;;3.53;1.35;;;;;;;;;;4940541;28;20246;-57
2022/09/01 07:00:32;;;;;;;2.75;1.33;;;;;;;;;;4933521;28;20294;-58
2022/09/01 07:02:59;;;;;;;1.15;1.08;;;;;;;;;;4947288;28;20238;-56
2022/09/01 07:05:25;;;;;;;1.92;1.25;;;;;;;;;;4950957;28;20247;-57
2022/09/01 07:07:54;;;;;;;1.38;1.20;;;;;;;;;;4945587;28;20247;-56
2022/09/01 07:10:21;;;;;;;1.90;1.40;;;;;;;;;;4940558;28;20235;-57
2022/09/01 07:12:48;;;;;;;2.92;1.38;;;;;;;;;;4945815;28;20380;-57
2022/09/01 07:15:18;;;;;;;3.08;1.73;;;;;;;;;;4937345;28;20322;-56
2022/09/01 07:17:47;;;;;;;3.67;1.65;;;;;;;;;;4944414;28;20232;-57
2022/09/01 07:20:14;;;;;;;1.17;1.08;;;;;;;;;;4948953;28;20246;-57
2022/09/01 07:22:40;;;;;;;2.58;1.15;;;;;;;;;;4948806;28;20323;-56
2022/09/01 07:25:11;;;;;;;2.35;1.30;;;;;;;;;;4946240;28;20232;-56
2022/09/01 07:27:37;;;;;;;1.17;1.08;;;;;;;;;;4947422;28;20239;-57
2022/09/01 07:30:08;;;;;;;0.77;0.77;;;;;;;;;;4943797;28;20242;-58
2022/09/01 07:32:35;;;;;;;1.42;0.80;;;;;;;;;;4943961;28;20242;-57
2022/09/01 07:35:02;;;;;;;0.93;0.90;;;;;;;;;;4938123;28;20246;-58
2022/09/01 07:37:28;;;;;;;1.30;1.15;;;;;;;;;;4945476;28;20231;-57
2022/09/01 07:39:54;;;;;;;0.82;0.82;;;;;;;;;;4942085;28;20783;-57
2022/09/01 07:42:23;;;;;;;3.30;1.00;;;;;;;;;;4944237;28;20290;-58
2022/09/01 07:44:49;;;;;;;0.75;0.75;;;;;;;;;;4923161;28;20239;-57
2022/09/01 07:47:16;;;;;;;1.70;1.08;;;;;;;;;;4922416;28;20242;-56
2022/09/01 07:49:43;;;;;;;0.73;0.73;;;;;;;;;;4923186;28;20270;-58
2022/09/01 07:52:09;;;;;;;2.10;0.93;;;;;;;;;;4926932;28;20239;-58
2022/09/01 07:54:37;;;;;;;1.00;0.73;;;;;;;;;;4926047;28;20250;-55
2022/09/01 07:57:04;;;;;;;4.13;1.05;;;;;;;;;;4927897;29;20241;-58
2022/09/01 07:59:32;;;;;;;1.55;0.95;;;;;;;;;;4922864;28;20242;-57
2022/09/01 08:02:00;;;;;;;1.65;0.70;;;;;;;;;;4925814;28;20497;-59
2022/09/01 08:04:27;;;;;;;0.70;0.68;;;;;;;;;;4927761;28;20853;-55
2022/09/01 08:06:54;;;;;;;2.80;0.93;;;;;;;;;;4919902;28;20772;-56
2022/09/01 08:09:21;;;;;;;1.30;0.85;;;;;;;;;;4925341;28;20591;-57
2022/09/01 08:11:47;;;;;;;2.88;1.23;;;;;;;;;;4927854;28;20236;-57
2022/09/01 08:14:13;;;;;;;0.73;0.73;;;;;;;;;;4933426;28;20259;-57
2022/09/01 08:16:41;;;;;;;1.30;0.60;;;;;;;;;;4930237;28;20585;-58
2022/09/01 08:19:07;;;;;;;1.88;0.95;;;;;;;;;;4926986;28;21043;-56
2022/09/01 08:21:34;;;;;;;1.10;1.00;;;;;;;;;;4932555;28;20245;-57
2022/09/01 08:24:01;;;;;;;1.98;0.93;;;;;;;;;;4944445;28;20237;-55
2022/09/01 08:26:27;;;;;;;1.05;0.90;;;;;;;;;;4947818;28;20246;-55
2022/09/01 08:28:54;;;;;;;1.98;0.85;;;;;;;;;;4952354;28;20238;-55
2022/09/01 08:31:21;;;;;;;0.57;0.57;;;;;;;;;;4947902;28;20231;-57
2022/09/01 08:33:49;;;;;;;1.25;0.90;;;;;;;;;;4942773;28;20240;-56
2022/09/01 08:36:16;;;;;;;0.80;0.80;;;;;;;;;;4939208;28;20266;-55
2022/09/01 08:38:43;;;;;;;0.73;0.60;;;;;;;;;;4940476;28;20239;-56
2022/09/01 08:41:15;;;;;;;2.03;1.00;;;;;;;;;;4939913;28;20231;-56
2022/09/01 08:43:46;;;;;;;2.20;0.60;;;;;;;;;;4947937;28;20326;-55
2022/09/01 08:46:14;;;;;;;1.33;0.80;;;;;;;;;;4953727;28;20239;-55
2022/09/01 08:48:42;;;;;;;1.75;0.98;;;;;;;;;;4947891;28;20234;-55
2022/09/01 08:51:15;;;;;;;1.05;0.70;;;;;;;;;;4948623;28;20265;-55
2022/09/01 08:53:43;;;;;;;2.13;0.63;;;;;;;;;;4938684;28;20239;-55
2022/09/01 08:56:11;;;;;;;1.73;1.00;;;;;;;;;;4947217;29;20709;-56
2022/09/01 08:58:37;;;;;;;2.60;0.80;;;;;;;;;;4947338;28;20242;-57
2022/09/01 09:01:08;;;;;;;3.63;0.70;;;;;;;;;;4940868;28;20232;-56
2022/09/01 09:03:38;;;;;;;2.15;1.00;;;;;;;;;;4944467;28;20298;-58
2022/09/01 09:06:09;;;;;;;2.42;0.85;;;;;;;;;;4942439;29;20236;-56
2022/09/01 09:08:43;;;;;;;1.77;0.80;;;;;;;;;;4945617;28;20294;-57
2022/09/01 09:11:17;;;;;;;1.02;0.60;;;;;;;;;;4941576;28;20326;-56
2022/09/01 09:13:47;;;;;;;4.78;0.95;;;;;;;;;;4947973;28;20231;-55
2022/09/01 09:16:17;;;;;;;1.50;0.85;;;;;;;;;;4952264;28;20235;-56
2022/09/01 09:18:45;;;;;;;0.70;0.70;;;;;;;;;;4946177;28;20227;-57
2022/09/01 09:21:14;;;;;;;1.63;0.82;;;;;;;;;;4952507;28;20235;-55
2022/09/01 09:23:45;;;;;;;2.58;0.88;;;;;;;;;;4945105;28;20227;-56
2022/09/01 09:26:12;;;;;;;1.35;0.68;;;;;;;;;;4955121;29;20239;-56
2022/09/01 09:28:38;;;;;;;1.35;0.80;;;;;;;;;;4935508;28;20243;-57
2022/09/01 09:31:23;;;;;;;1.17;0.80;;;;;;;;;;4937191;29;20247;-59
2022/09/01 09:33:50;;;;;;;2.70;0.88;;;;;;;;;;4946764;28;20239;-57
2022/09/01 09:36:17;;;;;;;1.25;0.77;;;;;;;;;;4945429;28;20239;-59
2022/09/01 09:38:46;;;;;;;1.27;0.80;;;;;;;;;;4939640;28;20243;-56
2022/09/01 09:41:16;;;;;;;0.60;0.60;;;;;;;;;;4942561;28;20234;-57
2022/09/01 09:43:44;;;;;;;1.30;0.82;;;;;;;;;;4945902;28;20238;-55
2022/09/01 09:46:21;;;;;;;1.63;0.75;;;;;;;;;;4940319;28;20242;-58
2022/09/01 09:48:47;;;;;;;0.45;0.45;;;;;;;;;;4939411;29;20239;-57
2022/09/01 09:51:16;;;;;;;1.98;0.85;;;;;;;;;;4946637;28;20235;-55
2022/09/01 09:53:42;;;;;;;1.70;0.82;;;;;;;;;;4936414;28;20593;-55
2022/09/01 09:56:16;;;;;;;0.63;0.63;;;;;;;;;;4944630;28;20239;-56
2022/09/01 09:58:45;;;;;;;0.73;0.73;;;;;;;;;;4944198;28;20250;-56
2022/09/01 10:01:15;;;;;;;1.13;0.80;;;;;;;;;;4942106;28;20235;-55
2022/09/01 10:03:42;;;;;;;0.57;0.57;;;;;;;;;;4940404;28;20259;-56
2022/09/01 10:06:10;;;;;;;0.80;0.80;;;;;;;;;;4945759;28;20235;-57
2022/09/01 10:08:43;;;;;;;2.25;0.93;;;;;;;;;;4944005;28;20235;-55
2022/09/01 10:11:12;;;;;;;1.20;0.60;;;;;;;;;;4942150;28;20310;-57
2022/09/01 10:13:38;;;;;;;2.28;0.70;;;;;;;;;;4941524;28;20240;-57
2022/09/01 10:16:07;;;;;;;0.40;0.40;;;;;;;;;;4944117;28;20239;-56
2022/09/01 10:18:36;;;;;;;1.23;0.75;;;;;;;;;;4945777;29;20246;-57
2022/09/01 10:21:07;;;;;;;0.52;0.50;;;;;;;;;;4942047;28;20242;-55
2022/09/01 10:23:34;;;;;;;2.90;0.60;;;;;;;;;;4940668;28;20646;-55
2022/09/01 10:26:03;;;;;;;1.02;0.60;;;;;;;;;;4943467;28;20251;-55
2022/09/01 10:28:32;;;;;;;1.65;0.73;;;;;;;;;;4948855;28;20749;-57
2022/09/01 10:30:58;;;;;;;0.80;0.70;;;;;;;;;;4936525;28;20725;-56
2022/09/01 10:33:25;;;;;;;0.60;0.47;;;;;;;;;;4943151;28;20231;-57
2022/09/01 10:35:53;;;;;;;1.40;0.47;;;;;;;;;;4944815;28;20231;-57
2022/09/01 10:38:20;;;;;;;1.35;0.90;;;;;;;;;;4942789;28;20239;-56
2022/09/01 10:41:05;;;;;;;1.20;0.68;;;;;;;;;;4933396;28;20235;-56
2022/09/01 10:43:39;;;;;;;1.60;0.95;;;;;;;;;;4944695;28;20238;-55
2022/09/01 10:46:43;;;;;;;1.35;0.80;;;;;;;;;;4943668;28;20239;-54
2022/09/01 10:49:17;;;;;;;3.63;1.25;;;;;;;;;;4944170;28;20689;-56
2022/09/01 10:51:45;;;;;;;4.32;0.93;;;;;;;;;;4938674;28;20245;-55
2022/09/01 10:54:26;;;;;;;0.80;0.55;;;;;;;;;;4943692;28;20597;-55
2022/09/01 10:56:52;;;;;;;0.63;0.63;;;;;;;;;;4946179;28;20241;-56
2022/09/01 10:59:27;;;;;;;2.72;0.85;;;;;;;;;;4943943;28;20239;-56
2022/09/01 11:02:03;;;;;;;0.68;0.68;;;;;;;;;;4945085;29;20251;-55
2022/09/01 11:04:44;;;;;;;1.23;0.80;;;;;;;;;;4941083;28;20246;-56
2022/09/01 11:07:27;;;;;;;2.50;0.85;;;;;;;;;;4937282;29;20235;-55
2022/09/01 11:10:08;;;;;;;1.10;0.50;;;;;;;;;;4944297;28;20322;-57
2022/09/01 11:12:47;;;;;;;3.67;1.38;;;;;;;;;;4937942;28;20234;-55
2022/09/01 11:15:35;;;;;;;1.30;0.68;;;;;;;;;;4942595;28;20243;-57
2022/09/01 11:18:02;;;;;;;1.08;0.90;;;;;;;;;;4951536;28;20685;-55
2022/09/01 11:20:32;;;;;;;1.15;1.05;;;;;;;;;;4942351;28;20245;-55
2022/09/01 11:22:59;;;;;;;1.05;0.95;;;;;;;;;;4934342;28;20242;-56
2022/09/01 11:25:34;;;;;;;0.47;0.45;;;;;;;;;;4942135;28;22661;-55
2022/09/01 11:28:02;;;;;;;1.25;1.02;;;;;;;;;;4941659;28;20231;-56
2022/09/01 11:30:53;;;;;;;3.33;0.73;;;;;;;;;;4933725;28;20270;-55
2022/09/01 11:33:38;;;;;;;1.35;0.68;;;;;;;;;;4940045;28;20246;-55
2022/09/01 11:36:06;;;;;;;0.60;0.60;;;;;;;;;;4934364;28;20249;-55
2022/09/01 11:38:38;;;;;;;0.68;0.68;;;;;;;;;;4935346;28;20235;-56
2022/09/01 11:41:04;;;;;;;2.00;0.77;;;;;;;;;;4940121;28;20235;-55
2022/09/01 11:43:30;;;;;;;1.60;0.88;;;;;;;;;;4944095;28;20239;-57
2022/09/01 11:46:02;;;;;;;1.65;1.30;;;;;;;;;;4940292;28;20262;-55
2022/09/01 11:48:29;;;;;;;2.22;1.23;;;;;;;;;;4949701;28;20524;-55
2022/09/01 11:50:59;;;;;;;1.63;0.60;;;;;;;;;;4942885;28;20238;-56
2022/09/01 11:53:25;;;;;;;1.17;1.08;;;;;;;;;;4946278;28;20642;-56
2022/09/01 11:55:53;;;;;;;8.00;1.55;;;;;;;;;;4937718;28;20239;-56
2022/09/01 11:58:30;;;;;;;2.67;0.82;;;;;;;;;;4946614;28;20751;-56
2022/09/01 12:00:58;;;;;;;0.77;0.75;;;;;;;;;;4942444;28;21785;-56
2022/09/01 12:03:26;;;;;;;1.05;0.68;;;;;;;;;;4948216;28;20242;-53
2022/09/01 12:05:58;;;;;;;0.93;0.70;;;;;;;;;;4952384;28;20243;-53
2022/09/01 12:08:27;;;;;;;1.92;0.90;;;;;;;;;;4945916;28;20231;-55
2022/09/01 12:11:02;;;;;;;0.75;0.50;;;;;;;;;;4946347;28;20232;-54
2022/09/01 12:13:29;;;;;;;2.67;0.80;;;;;;;;;;4945935;28;20270;-54
2022/09/01 12:15:56;;;;;;;0.40;0.40;;;;;;;;;;4944287;28;20232;-54
2022/09/01 12:18:23;;;;;;;4.20;0.57;;;;;;;;;;4943103;28;20610;-53
2022/09/01 12:20:51;;;;;;;0.60;0.60;;;;;;;;;;4941808;28;20227;-54
2022/09/01 12:23:19;;;;;;;1.15;1.02;;;;;;;;;;4942109;28;20298;-53
2022/09/01 12:25:47;;;;;;;0.60;0.60;;;;;;;;;;4946590;28;20254;-55
2022/09/01 12:28:13;;;;;;;0.30;0.30;;;;;;;;;;4943555;28;20242;-54
2022/09/01 12:30:40;;;;;;;0.68;0.55;;;;;;;;;;4945584;28;20673;-53
2022/09/01 12:33:07;;;;;;;0.63;0.52;;;;;;;;;;4946562;28;20239;-54
2022/09/01 12:35:34;;;;;;;0.73;0.60;;;;;;;;;;4947485;29;20239;-55
2022/09/01 12:38:15;;;;;;;1.08;0.65;;;;;;;;;;4944621;28;20330;-53
2022/09/01 12:40:41;;;;;;;0.40;0.40;;;;;;;;;;4943039;28;20785;-53
2022/09/01 12:43:09;;;;;;;0.73;0.50;;;;;;;;;;4947877;28;20245;-52
2022/09/01 12:45:36;;;;;;;0.73;0.50;;;;;;;;;;4945754;28;20243;-53
2022/09/01 12:48:03;;;;;;;1.00;0.60;;;;;;;;;;4937840;29;20236;-53
2022/09/01 12:50:44;;;;;;;0.90;0.73;;;;;;;;;;4943791;28;20242;-54
2022/09/01 12:53:19;;;;;;;0.50;0.50;;;;;;;;;;4939723;28;20705;-52
2022/09/01 12:55:54;;;;;;;0.70;0.68;;;;;;;;;;4944833;28;20242;-55
2022/09/01 12:58:24;;;;;;;2.30;0.65;;;;;;;;;;4953070;28;20231;-53
2022/09/01 13:00:55;;;;;;;1.05;0.60;;;;;;;;;;4945054;28;20290;-54
2022/09/01 13:03:26;;;;;;;0.60;0.60;;;;;;;;;;4945572;28;20239;-55
2022/09/01 13:05:53;;;;;;;0.70;0.47;;;;;;;;;;4942941;28;20242;-55
2022/09/01 13:08:20;;;;;;;1.08;0.50;;;;;;;;;;4943789;28;20235;-54
2022/09/01 13:10:48;;;;;;;0.95;0.70;;;;;;;;;;4945005;28;20242;-53
2022/09/01 13:13:15;;;;;;;0.88;0.80;;;;;;;;;;4943235;28;20254;-54
2022/09/01 13:15:46;;;;;;;1.08;0.80;;;;;;;;;;4939299;28;20239;-53
2022/09/01 13:18:13;;;;;;;1.67;0.32;;;;;;;;;;4936591;28;20309;-55
2022/09/01 13:20:40;;;;;;;0.95;0.30;;;;;;;;;;4946727;28;20650;-53
2022/09/01 13:23:07;;;;;;;0.85;0.50;;;;;;;;;;4945241;28;20704;-55
2022/09/01 13:25:34;;;;;;;0.47;0.47;;;;;;;;;;4946834;28;20231;-54
2022/09/01 13:28:01;;;;;;;2.17;0.60;;;;;;;;;;4944373;28;20241;-54
2022/09/01 13:30:28;;;;;;;1.60;0.45;;;;;;;;;;4943175;28;20243;-56
2022/09/01 13:32:56;;;;;;;2.78;0.80;;;;;;;;;;4940411;28;20255;-54
2022/09/01 13:35:23;;;;;;;0.50;0.50;;;;;;;;;;4944789;28;20239;-53
2022/09/01 13:37:49;;;;;;;1.20;0.50;;;;;;;;;;4945837;28;20246;-56
2022/09/01 13:40:16;;;;;;;0.55;0.50;;;;;;;;;;4931817;28;20240;-54
2022/09/01 13:42:43;;;;;;;0.85;0.50;;;;;;;;;;4941222;28;20709;-52
2022/09/01 13:45:11;;;;;;;0.60;0.60;;;;;;;;;;4935773;28;20247;-52
2022/09/01 13:47:38;;;;;;;3.83;0.73;;;;;;;;;;4938998;28;20239;-53
2022/09/01 13:50:06;;;;;;;0.70;0.63;;;;;;;;;;4944098;28;20235;-54
2022/09/01 13:52:33;;;;;;;0.90;0.70;;;;;;;;;;4955404;28;20242;-53
2022/09/01 13:55:00;;;;;;;0.55;0.55;;;;;;;;;;4946628;28;20475;-54
2022/09/01 13:57:26;;;;;;;1.42;0.55;;;;;;;;;;4952636;28;20288;-53
2022/09/01 13:59:54;;;;;;;1.40;0.75;;;;;;;;;;4948070;28;20666;-53
2022/09/01 14:02:20;;;;;;;0.68;0.57;;;;;;;;;;4937033;28;20326;-54
2022/09/01 14:04:46;;;;;;;0.55;0.55;;;;;;;;;;4941606;28;20322;-54
2022/09/01 14:07:17;;;;;;;0.47;0.47;;;;;;;;;;4933243;28;20721;-53
2022/09/01 14:09:43;;;;;;;0.63;0.63;;;;;;;;;;4930147;28;20234;-54
2022/09/01 14:12:10;;;;;;;0.88;0.60;;;;;;;;;;4945846;28;20235;-54
2022/09/01 14:14:36;;;;;;;0.90;0.80;;;;;;;;;;4947621;28;20234;-55
2022/09/01 14:17:03;;;;;;;0.82;0.80;;;;;;;;;;4946196;28;20235;-55
2022/09/01 14:19:30;;;;;;;0.40;0.40;;;;;;;;;;4944459;28;20257;-53
2022/09/01 14:21:56;;;;;;;0.50;0.40;;;;;;;;;;4939210;29;20247;-53
2022/09/01 14:24:25;;;;;;;0.77;0.60;;;;;;;;;;4943884;28;20232;-55
2022/09/01 14:26:51;;;;;;;0.80;0.70;;;;;;;;;;4945937;28;20239;-54
2022/09/01 14:29:18;;;;;;;1.00;0.50;;;;;;;;;;4945450;28;20270;-53
2022/09/01 14:31:44;;;;;;;0.50;0.50;;;;;;;;;;4936990;28;20572;-54
2022/09/01 14:34:11;;;;;;;0.45;0.45;;;;;;;;;;4937441;28;20237;-55
2022/09/01 14:36:38;;;;;;;0.63;0.63;;;;;;;;;;4940381;28;20239;-53
2022/09/01 14:39:05;;;;;;;0.50;0.50;;;;;;;;;;4940327;28;20235;-55
2022/09/01 14:41:33;;;;;;;0.88;0.50;;;;;;;;;;4934833;28;20235;-53
2022/09/01 14:44:01;;;;;;;1.10;0.85;;;;;;;;;;4934528;28;20235;-53
2022/09/01 14:46:29;;;;;;;0.93;0.82;;;;;;;;;;4935788;28;20247;-55
2022/09/01 14:48:56;;;;;;;1.10;0.55;;;;;;;;;;4925337;28;20239;-55
2022/09/01 14:51:23;;;;;;;2.28;0.90;;;;;;;;;;4937105;28;20243;-55
2022/09/01 14:53:50;;;;;;;0.70;0.65;;;;;;;;;;4940210;28;20259;-56
2022/09/01 14:56:18;;;;;;;0.95;0.80;;;;;;;;;;4941286;28;20235;-55